Time;durP1;ratioP1;P1;durP2;ratioP2;P2;SDS_P1;SDS_P2;PMS_P1;PMS_P2;Temp;Humidity;BMP_temperature;BMP_pressure;BME280_temperature;BME280_humidity;BME280_pressure;Samples;Min_cycle;Max_cycle;Signal;HPM_P1;HPM_P2
2023/10/15 00:04:47;;;;;;;15.70;2.90;;;;;;;4.86;79.17;100678.47;10334230;28;20065;-81
2023/10/15 00:09:50;;;;;;;8.95;3.30;;;;;;;4.79;79.54;100666.75;10333444;28;20049;-81
2023/10/15 00:14:51;;;;;;;15.57;3.40;;;;;;;4.96;79.83;100683.81;10333509;28;20034;-81
2023/10/15 00:19:51;;;;;;;7.22;2.78;;;;;;;5.03;79.66;100696.38;10332923;28;20041;-80
2023/10/15 00:24:52;;;;;;;6.95;3.15;;;;;;;4.76;80.12;100652.06;10333920;28;20046;-82
2023/10/15 00:29:53;;;;;;;14.18;3.35;;;;;;;4.51;79.05;100636.53;10333442;28;20042;-80
2023/10/15 00:34:54;;;;;;;6.95;2.88;;;;;;;4.71;79.06;100684.94;10332734;28;20042;-81
2023/10/15 00:39:55;;;;;;;13.82;3.33;;;;;;;4.20;78.95;100583.72;10333674;28;20088;-82
2023/10/15 00:44:57;;;;;;;23.52;3.92;;;;;;;4.56;79.46;100651.00;10331391;28;20096;-82
2023/10/15 00:49:58;;;;;;;9.82;5.78;;;;;;;4.53;79.96;100656.50;10332670;28;20046;-82
2023/10/15 00:55:05;;;;;;;13.30;5.55;;;;;;;4.34;80.25;100643.16;10332002;28;20065;-82
2023/10/15 01:00:08;;;;;;;14.73;7.00;;;;;;;4.21;80.85;100629.25;10332091;28;20126;-82
2023/10/15 01:05:09;;;;;;;17.30;10.43;;;;;;;4.66;80.82;100708.16;10330403;28;20072;-84
2023/10/15 01:10:19;;;;;;;26.10;13.15;;;;;;;4.24;82.46;100635.13;10330238;28;20042;-83
2023/10/15 01:15:20;;;;;;;18.48;10.90;;;;;;;4.43;81.12;100658.19;10332128;28;20431;-83
2023/10/15 01:20:29;;;;;;;18.40;8.07;;;;;;;4.67;80.86;100694.06;10331530;28;20050;-83
2023/10/15 01:25:32;;;;;;;17.98;8.25;;;;;;;4.19;80.58;100628.53;10332282;28;20136;-82
2023/10/15 01:30:36;;;;;;;12.25;6.30;;;;;;;4.54;80.55;100681.84;10332128;28;20038;-82
2023/10/15 01:35:38;;;;;;;13.27;6.32;;;;;;;4.45;80.59;100689.63;10330908;28;20414;-82
2023/10/15 01:40:44;;;;;;;12.90;5.93;;;;;;;4.55;79.82;100690.59;10331390;28;20125;-81
2023/10/15 01:45:47;;;;;;;10.98;5.63;;;;;;;4.03;80.31;100635.00;10331388;28;20042;-82
2023/10/15 01:50:51;;;;;;;10.18;5.85;;;;;;;4.30;80.82;100670.63;10331767;28;20078;-83
2023/10/15 01:55:59;;;;;;;14.43;5.53;;;;;;;4.19;81.43;100668.84;10330642;28;20058;-82
2023/10/15 02:01:13;;;;;;;19.02;4.80;;;;;;;4.25;80.69;100684.16;10332007;28;20054;-82
2023/10/15 02:06:19;;;;;;;11.30;4.88;;;;;;;3.75;80.78;100612.63;10335042;28;20042;-83
2023/10/15 02:11:23;;;;;;;22.45;4.97;;;;;;;3.77;81.58;100634.38;10339166;28;20457;-83
2023/10/15 02:16:29;;;;;;;15.63;4.30;;;;;;;4.00;81.72;100658.06;10337191;28;20042;-82
2023/10/15 02:21:31;;;;;;;9.90;3.75;;;;;;;3.52;81.18;100606.50;10338348;28;20082;-83
2023/10/15 02:26:32;;;;;;;25.38;4.47;;;;;;;3.19;81.02;100557.38;10338794;28;20045;-82
2023/10/15 02:31:41;;;;;;;25.23;5.07;;;;;;;3.52;81.54;100600.41;10338363;28;20038;-82
2023/10/15 02:36:45;;;;;;;35.38;5.07;;;;;;;3.34;81.16;100571.97;10336307;28;20092;-82
2023/10/15 02:41:46;;;;;;;11.43;4.03;;;;;;;2.48;81.56;100464.69;10337005;28;20089;-82
2023/10/15 02:46:47;;;;;;;54.40;5.57;;;;;;;2.97;81.61;100563.38;10336103;28;20189;-82
2023/10/15 02:51:48;;;;;;;12.07;3.92;;;;;;;3.34;81.79;100616.59;10335875;28;20062;-82
2023/10/15 02:56:49;;;;;;;12.40;3.80;;;;;;;3.10;82.53;100564.13;10336894;28;20053;-81
2023/10/15 03:01:55;;;;;;;79.70;6.50;;;;;;;2.69;82.29;100515.59;10336816;28;20038;-82
2023/10/15 03:06:58;;;;;;;54.17;5.63;;;;;;;2.40;82.41;100478.38;10336412;28;20049;-83
2023/10/15 03:11:58;;;;;;;60.13;6.25;;;;;;;3.52;82.33;100626.69;10336357;28;20044;-81
2023/10/15 03:16:59;;;;;;;10.75;4.47;;;;;;;3.13;82.17;100556.03;10335304;28;20044;-82
2023/10/15 03:22:00;;;;;;;45.90;4.70;;;;;;;2.88;82.25;100522.91;10334613;28;20517;-82
2023/10/15 03:27:01;;;;;;;14.45;4.22;;;;;;;3.28;82.25;100598.69;10334565;28;20047;-81
2023/10/15 03:32:09;;;;;;;84.00;7.10;;;;;;;3.06;81.75;100557.44;10334951;28;20038;-81
2023/10/15 03:37:14;;;;;;;72.47;6.18;;;;;;;3.42;82.33;100616.03;10334446;28;20046;-81
2023/10/15 03:47:22;;;;;;;42.35;5.25;;;;;;;3.94;82.22;100624.34;10335739;28;20042;-82
2023/10/15 03:52:22;;;;;;;40.83;5.93;;;;;;;4.35;81.76;100605.34;10335214;28;20062;-81
2023/10/15 03:57:36;;;;;;;47.17;6.68;;;;;;;5.07;80.62;100633.75;10334133;28;20046;-82
2023/10/15 04:02:45;;;;;;;34.00;5.20;;;;;;;5.24;79.78;100606.06;10325756;28;20053;-82
2023/10/15 04:07:53;;;;;;;30.60;4.55;;;;;;;5.58;78.74;100619.03;10310321;28;20050;-78
2023/10/15 04:12:54;;;;;;;16.70;4.85;;;;;;;4.73;78.13;100467.25;10333408;28;20387;-78
2023/10/15 04:17:54;;;;;;;85.60;6.97;;;;;;;5.48;76.85;100546.03;10332830;28;20046;-78
2023/10/15 04:22:55;;;;;;;14.98;5.28;;;;;;;6.07;75.78;100602.56;10332528;28;20038;-78
2023/10/15 04:27:56;;;;;;;10.38;5.45;;;;;;;6.35;75.61;100590.41;10333306;28;20050;-78
2023/10/15 04:32:56;;;;;;;25.77;6.05;;;;;;;6.75;74.62;100608.00;10333088;28;20039;-78
2023/10/15 04:37:58;;;;;;;13.98;5.10;;;;;;;7.02;73.40;100609.16;10332785;28;20137;-78
2023/10/15 04:43:00;;;;;;;17.50;9.27;;;;;;;7.11;72.41;100570.50;10333989;28;20035;-77
2023/10/15 04:48:01;;;;;;;19.88;7.20;;;;;;;7.65;71.97;100616.59;10348892;28;20042;-78
2023/10/15 04:58:35;;;;;;;14.83;6.83;;;;;;;8.16;70.29;100589.69;10330956;28;20137;-78
2023/10/15 05:03:38;;;;;;;18.38;6.85;;;;;;;8.70;69.59;100642.81;10330404;28;20034;-78
2023/10/15 05:08:42;;;;;;;27.58;7.00;;;;;;;8.88;69.32;100621.66;10331387;28;20050;-78
2023/10/15 05:13:42;;;;;;;15.63;6.35;;;;;;;9.08;68.69;100601.16;10328144;28;20046;-81
2023/10/15 05:18:44;;;;;;;16.05;6.45;;;;;;;8.86;68.22;100515.03;10331650;28;20406;-79
2023/10/15 05:23:46;;;;;;;19.55;6.40;;;;;;;9.94;67.92;100619.03;10330868;28;20048;-80
2023/10/15 05:28:51;;;;;;;12.98;5.43;;;;;;;10.40;67.01;100609.00;10329046;28;20034;-82
2023/10/15 05:33:52;;;;;;;13.98;6.38;;;;;;;10.88;65.94;100599.47;10325256;28;20050;-85
2023/10/15 05:38:53;;;;;;;27.25;8.32;;;;;;;11.46;65.45;100595.00;10349313;28;20101;-81
2023/10/15 05:43:54;;;;;;;30.95;9.30;;;;;;;11.35;65.19;100495.13;10379479;28;20462;-84
2023/10/15 05:48:54;;;;;;;23.35;10.05;;;;;;;11.82;64.77;100487.19;10359855;28;20038;-81
2023/10/15 05:53:55;;;;;;;22.52;10.85;;;;;;;12.95;64.26;100582.66;10339743;28;20502;-79
2023/10/15 05:58:58;;;;;;;23.55;11.45;;;;;;;12.94;63.82;100484.16;10358401;23;20080;-84
2023/10/15 06:04:03;;;;;;;22.67;10.57;;;;;;;12.65;63.93;100346.31;10348270;28;20056;-83
2023/10/15 06:09:05;;;;;;;19.92;9.73;;;;;;;13.44;63.39;100397.34;10337999;28;20046;-86
2023/10/15 06:14:06;;;;;;;23.20;10.13;;;;;;;13.79;63.68;100397.53;10353009;28;20536;-83
2023/10/15 06:19:09;;;;;;;26.35;10.63;;;;;;;15.10;63.60;100570.19;10338912;28;20132;-78
2023/10/15 06:24:10;;;;;;;24.13;10.75;;;;;;;15.01;63.51;100512.50;10335824;28;20498;-75
2023/10/15 06:29:13;;;;;;;20.15;10.90;;;;;;;15.01;63.90;100507.97;10336372;28;20050;-77
2023/10/15 06:34:16;;;;;;;15.43;8.43;;;;;;;15.33;64.19;100545.09;10335204;28;20411;-75
2023/10/15 06:39:18;;;;;;;20.50;5.70;;;;;;;14.69;65.53;100525.41;10337482;28;20053;-83
2023/10/15 06:44:21;;;;;;;14.80;2.80;;;;;;;14.31;68.62;100536.25;10352269;28;20107;-80
2023/10/15 06:49:22;;;;;;;10.52;2.38;;;;;;;13.48;69.93;100427.97;10337366;28;20085;-78
2023/10/15 06:54:23;;;;;;;8.65;2.00;;;;;;;13.17;73.68;100441.47;10334656;28;20084;-76
2023/10/15 06:59:27;;;;;;;17.88;2.65;;;;;;;13.63;75.78;100474.16;10332582;28;20804;-77
2023/10/15 07:04:30;;;;;;;15.35;2.17;;;;;;;14.40;76.26;100547.66;10316243;28;20043;-78
2023/10/15 07:09:35;;;;;;;18.45;2.50;;;;;;;14.38;77.91;100517.59;10319204;28;20042;-78
2023/10/15 07:14:35;;;;;;;11.85;1.88;;;;;;;14.35;77.30;100526.00;10322908;28;20053;-83
2023/10/15 07:19:36;;;;;;;7.47;1.70;;;;;;;14.25;77.52;100498.75;10312846;28;20392;-79
2023/10/15 07:24:37;;;;;;;6.57;1.42;;;;;;;14.49;78.59;100535.84;10317921;28;20047;-86
2023/10/15 07:29:39;;;;;;;18.23;1.75;;;;;;;14.50;79.59;100540.16;10321237;28;20038;-82
2023/10/15 07:34:40;;;;;;;4.70;1.65;;;;;;;14.35;80.79;100529.50;10314747;28;20085;-77
2023/10/15 07:39:41;;;;;;;4.70;1.50;;;;;;;14.16;81.51;100471.34;10311735;28;20422;-85
2023/10/15 07:44:42;;;;;;;7.70;1.70;;;;;;;14.83;80.64;100494.25;10320680;28;20502;-80
2023/10/15 07:49:43;;;;;;;8.38;1.77;;;;;;;14.77;80.94;100461.06;10321932;28;20054;-78
2023/10/15 07:54:43;;;;;;;14.52;2.20;;;;;;;15.72;79.89;100501.72;10331709;28;20118;-83
2023/10/15 07:59:44;;;;;;;8.85;2.00;;;;;;;16.06;78.73;100490.09;10321455;28;20128;-78
2023/10/15 08:04:45;;;;;;;12.77;2.20;;;;;;;16.76;77.30;100485.38;10306097;28;20047;-72
2023/10/15 08:09:46;;;;;;;5.75;2.13;;;;;;;16.93;75.96;100466.19;10333464;28;20046;-86
2023/10/15 08:14:47;;;;;;;6.03;1.70;;;;;;;17.07;75.45;100474.00;10327375;28;20054;-79
2023/10/15 08:19:48;;;;;;;11.80;2.28;;;;;;;17.01;74.32;100436.44;10292000;28;20129;-82
2023/10/15 08:24:49;;;;;;;7.18;1.85;;;;;;;16.64;74.71;100404.66;10302139;28;20047;-77
2023/10/15 08:29:50;;;;;;;7.93;2.20;;;;;;;17.45;73.09;100448.38;10330381;28;20034;-79
2023/10/15 08:34:51;;;;;;;8.73;1.75;;;;;;;17.78;71.36;100441.06;10330710;28;20490;-79
2023/10/15 08:39:52;;;;;;;10.40;1.90;;;;;;;17.56;69.29;100391.31;10332861;28;20137;-80
2023/10/15 08:44:57;;;;;;;8.30;2.00;;;;;;;18.03;68.80;100429.56;10332748;28;20176;-80
2023/10/15 08:49:59;;;;;;;7.88;2.22;;;;;;;18.10;68.56;100422.31;10332170;28;20030;-83
2023/10/15 08:55:00;;;;;;;13.10;2.42;;;;;;;18.27;68.19;100382.25;10331530;28;20057;-78
2023/10/15 09:00:03;;;;;;;13.73;2.10;;;;;;;18.32;66.85;100368.19;10331783;28;20069;-83
2023/10/15 09:05:04;;;;;;;10.43;2.30;;;;;;;18.65;66.54;100376.78;10329009;28;20105;-80
2023/10/15 09:10:08;;;;;;;7.72;2.20;;;;;;;18.96;65.29;100376.97;10332270;28;20049;-78
2023/10/15 09:15:16;;;;;;;13.40;2.10;;;;;;;18.71;64.64;100348.19;10330211;28;20048;-79
2023/10/15 09:20:26;;;;;;;14.75;2.60;;;;;;;18.73;65.09;100356.06;10330591;28;20051;-79
2023/10/15 09:25:29;;;;;;;8.57;1.73;;;;;;;19.02;64.44;100370.69;10346394;28;20097;-76
2023/10/15 09:30:30;;;;;;;10.38;1.90;;;;;;;19.12;63.63;100355.69;10321799;28;20134;-72
2023/10/15 09:35:31;;;;;;;18.88;2.20;;;;;;;19.02;63.68;100300.69;10321375;28;20060;-73
2023/10/15 09:40:31;;;;;;;9.30;1.73;;;;;;;19.26;63.18;100328.56;10330585;28;20041;-75
2023/10/15 09:45:32;;;;;;;8.13;1.90;;;;;;;19.33;63.49;100327.47;10331537;28;20050;-72
2023/10/15 09:50:41;;;;;;;19.90;2.88;;;;;;;19.66;63.60;100325.44;10329334;28;20042;-83
2023/10/15 09:55:43;;;;;;;8.82;2.63;;;;;;;19.30;61.62;100297.47;10310943;28;20050;-89
2023/10/15 10:06:22;;;;;;;11.50;2.08;;;;;;;18.96;62.32;100262.03;10334284;28;20113;-84
2023/10/15 10:11:51;;;;;;;8.35;1.83;;;;;;;19.36;61.51;100300.06;10330718;28;20061;-82
2023/10/15 10:16:52;;;;;;;6.88;1.65;;;;;;;18.77;61.13;100193.94;10329930;28;20046;-74
2023/10/15 10:21:55;;;;;;;11.57;1.90;;;;;;;18.85;61.99;100214.34;10331062;28;20054;-74
2023/10/15 10:26:56;;;;;;;13.25;2.03;;;;;;;19.26;62.03;100272.84;10335916;28;20410;-77
2023/10/15 10:31:59;;;;;;;8.00;1.73;;;;;;;19.26;61.65;100266.63;10337829;28;20045;-73
2023/10/15 10:37:00;;;;;;;6.37;1.47;;;;;;;19.31;61.26;100270.28;10335353;28;20081;-77
2023/10/15 10:42:01;;;;;;;7.95;1.90;;;;;;;19.31;60.28;100261.41;10337599;28;20108;-75
2023/10/15 10:47:23;;;;;;;10.40;2.15;;;;;;;19.12;59.23;100210.28;10337243;28;20049;-79
2023/10/15 10:52:36;;;;;;;10.73;2.50;;;;;;;18.97;59.56;100207.16;10336055;28;20088;-84
2023/10/15 10:57:41;;;;;;;10.32;2.33;;;;;;;19.28;59.48;100234.91;10336666;28;20066;-87
2023/10/15 11:02:43;;;;;;;16.75;2.33;;;;;;;19.13;59.62;100201.13;10326218;28;20047;-80
2023/10/15 11:07:46;;;;;;;14.02;2.17;;;;;;;19.28;58.68;100198.03;10318830;28;20050;-76
2023/10/15 11:12:47;;;;;;;8.15;2.33;;;;;;;19.43;58.41;100197.63;10322858;28;20054;-76
2023/10/15 11:17:57;;;;;;;19.00;2.40;;;;;;;19.60;57.68;100209.38;10325414;28;20051;-75
2023/10/15 11:23:01;;;;;;;11.00;2.35;;;;;;;19.71;58.51;100201.56;10310782;28;20046;-74
2023/10/15 11:28:07;;;;;;;8.18;2.50;;;;;;;19.51;57.46;100156.88;10314072;28;20039;-75
2023/10/15 11:33:12;;;;;;;11.90;2.38;;;;;;;19.36;56.67;100140.34;10326793;28;20506;-76
2023/10/15 11:38:14;;;;;;;10.10;2.83;;;;;;;19.86;57.07;100199.25;10334211;28;20069;-75
2023/10/15 11:43:20;;;;;;;7.72;2.33;;;;;;;19.73;56.14;100159.88;10305165;28;20502;-81
2023/10/15 11:48:21;;;;;;;6.43;2.15;;;;;;;20.00;55.58;100179.09;10295184;28;20427;-78
2023/10/15 11:53:26;;;;;;;7.78;2.25;;;;;;;20.13;55.50;100180.75;10294254;28;20067;-78
2023/10/15 11:58:31;;;;;;;8.63;2.10;;;;;;;19.95;55.12;100146.66;10291763;28;20608;-81
2023/10/15 12:09:47;;;;;;;13.18;2.50;;;;;;;20.01;55.63;100151.09;10313032;28;20062;-76
2023/10/15 12:14:47;;;;;;;8.57;2.50;;;;;;;19.97;55.60;100130.22;10333726;28;20074;-86
2023/10/15 12:19:48;;;;;;;11.40;2.75;;;;;;;20.14;55.58;100139.25;10333383;28;20089;-89
2023/10/15 12:24:49;;;;;;;10.50;2.70;;;;;;;20.15;54.40;100129.28;10334164;28;20109;-85
2023/10/15 12:29:50;;;;;;;19.17;2.58;;;;;;;20.14;53.60;100127.66;10333076;28;20038;-87
2023/10/15 12:34:51;;;;;;;15.68;2.58;;;;;;;20.13;53.11;100120.59;10332943;28;20093;-84
2023/10/15 12:39:52;;;;;;;14.07;2.85;;;;;;;20.01;52.19;100097.19;10332936;28;20089;-86
2023/10/15 12:44:53;;;;;;;10.20;2.53;;;;;;;20.17;52.25;100117.19;10333273;28;20046;-90
2023/10/15 12:49:54;;;;;;;17.02;2.47;;;;;;;20.08;51.98;100094.34;10332216;28;20040;-86
2023/10/15 12:54:55;;;;;;;15.35;2.83;;;;;;;19.94;52.17;100083.00;10332816;28;20056;-85
2023/10/15 12:59:56;;;;;;;33.10;3.05;;;;;;;19.65;52.46;100032.72;10332531;28;20485;-84
2023/10/15 13:04:56;;;;;;;15.30;2.92;;;;;;;19.95;52.00;100078.41;10331917;28;20082;-85
2023/10/15 13:09:57;;;;;;;11.93;2.58;;;;;;;19.55;51.08;100023.34;10332400;28;20150;-88
2023/10/15 13:14:58;;;;;;;12.40;2.90;;;;;;;19.54;51.01;100028.97;10330561;28;20052;-88
2023/10/15 13:20:02;;;;;;;19.70;3.03;;;;;;;19.79;50.83;100074.56;10331429;28;20038;-88
2023/10/15 13:25:03;;;;;;;9.82;2.88;;;;;;;19.56;51.29;100051.94;10329757;28;20559;-77
2023/10/15 13:30:05;;;;;;;16.33;2.75;;;;;;;19.55;51.26;100063.75;10331434;28;20144;-79
2023/10/15 13:35:07;;;;;;;17.73;2.80;;;;;;;19.56;51.26;100061.88;10331701;28;20058;-80
2023/10/15 13:40:09;;;;;;;36.50;4.88;;;;;;;19.41;51.66;100051.56;10331610;28;20034;-76
2023/10/15 13:45:14;;;;;;;13.70;2.88;;;;;;;18.90;52.24;99988.41;10331732;28;20405;-76
2023/10/15 13:50:18;;;;;;;11.77;2.40;;;;;;;19.20;52.55;100046.72;10330934;28;20049;-76
2023/10/15 13:55:19;;;;;;;26.73;4.30;;;;;;;18.99;53.02;100035.44;10331083;28;20046;-75
2023/10/15 14:00:21;;;;;;;30.25;4.05;;;;;;;18.77;53.36;100023.59;10333814;28;20042;-81
2023/10/15 14:05:21;;;;;;;25.42;4.10;;;;;;;18.40;53.96;99997.59;10354059;28;20097;-79
2023/10/15 14:10:22;;;;;;;19.55;5.50;;;;;;;18.26;54.72;100009.56;10339059;28;20386;-79
2023/10/15 14:15:24;;;;;;;28.60;4.63;;;;;;;18.01;55.36;100001.63;10354479;28;20409;-79
2023/10/15 14:20:25;;;;;;;25.60;4.20;;;;;;;18.11;56.11;100046.78;10337983;28;20070;-79
2023/10/15 14:25:26;;;;;;;62.05;16.98;;;;;;;17.82;56.58;100043.75;10338429;28;20034;-79
2023/10/15 14:30:27;;;;;;;112.30;54.08;;;;;;;16.99;56.75;99942.06;10338370;28;20505;-79
2023/10/15 14:35:28;;;;;;;123.35;61.60;;;;;;;17.33;56.91;100027.47;10337574;28;20038;-79
2023/10/15 14:40:28;;;;;;;103.38;43.10;;;;;;;17.45;56.41;100067.03;10337749;28;20098;-79
2023/10/15 14:45:29;;;;;;;115.13;35.47;;;;;;;17.30;56.63;100086.97;10336942;28;20042;-78
2023/10/15 14:50:30;;;;;;;123.35;32.20;;;;;;;17.17;56.22;100091.59;10336937;28;20125;-78
2023/10/15 14:55:31;;;;;;;90.68;25.67;;;;;;;16.50;56.50;100008.84;10337194;28;20378;-79
2023/10/15 15:00:33;;;;;;;52.92;16.40;;;;;;;16.46;56.71;100041.66;10336560;28;20052;-79
2023/10/15 15:05:35;;;;;;;42.85;12.52;;;;;;;16.59;57.25;100087.16;10336181;28;20049;-78
2023/10/15 15:10:35;;;;;;;43.85;11.00;;;;;;;15.63;57.65;99961.97;10351023;28;20062;-79
2023/10/15 15:15:42;;;;;;;32.17;8.57;;;;;;;16.29;58.42;100098.44;10335552;28;20053;-78
2023/10/15 15:20:44;;;;;;;23.08;6.57;;;;;;;16.09;58.75;100106.50;10333522;28;20038;-71
2023/10/15 15:25:45;;;;;;;19.98;5.20;;;;;;;15.85;59.65;100083.88;10335468;28;20035;-79
2023/10/15 15:30:48;;;;;;;22.02;4.38;;;;;;;14.66;60.15;99908.19;10334523;28;20034;-78
2023/10/15 15:35:55;;;;;;;14.70;4.00;;;;;;;15.16;60.81;99979.94;10333170;28;20256;-80
2023/10/15 15:41:06;;;;;;;46.50;4.50;;;;;;;15.61;63.54;100063.91;10329580;28;20046;-77
2023/10/15 15:46:11;;;;;;;16.65;3.20;;;;;;;15.68;63.46;100072.00;10363456;28;20046;-75
2023/10/15 15:51:12;;;;;;;12.35;3.03;;;;;;;15.52;63.52;100057.13;10371722;28;20045;-75
2023/10/15 15:56:13;;;;;;;15.27;3.03;;;;;;;15.51;63.95;100069.69;10372329;28;20046;-73
2023/10/15 16:01:18;;;;;;;20.35;2.92;;;;;;;15.28;66.42;100034.50;10373874;28;20115;-74
2023/10/15 16:06:18;;;;;;;15.85;3.05;;;;;;;15.59;65.83;100100.81;10375346;28;20046;-73
2023/10/15 16:11:20;;;;;;;16.88;2.90;;;;;;;15.42;66.53;100070.94;10375236;28;20136;-85
2023/10/15 16:16:21;;;;;;;20.30;2.97;;;;;;;15.55;67.32;100096.06;10374931;28;20136;-72
2023/10/15 16:21:22;;;;;;;17.83;2.80;;;;;;;15.10;67.55;100029.75;10388842;28;20501;-74
2023/10/15 16:26:23;;;;;;;22.58;3.45;;;;;;;15.42;68.37;100092.34;10371816;28;20049;-72
2023/10/15 16:31:25;;;;;;;15.32;2.67;;;;;;;14.98;69.10;100039.41;10372121;28;20041;-85
2023/10/15 16:36:25;;;;;;;16.00;3.00;;;;;;;14.60;69.51;99995.34;10373054;28;20129;-89
2023/10/15 16:41:27;;;;;;;15.27;3.33;;;;;;;14.45;70.08;99975.13;10372183;28;20644;-82
2023/10/15 16:46:27;;;;;;;15.35;2.90;;;;;;;14.66;70.70;100030.31;10373232;28;20092;-82
2023/10/15 16:51:29;;;;;;;15.40;2.80;;;;;;;14.79;71.56;100073.13;10373249;28;20494;-86
2023/10/15 16:56:31;;;;;;;18.85;3.72;;;;;;;14.78;72.36;100092.88;10373494;28;20048;-83
2023/10/15 17:01:32;;;;;;;18.05;3.22;;;;;;;14.67;72.74;100091.63;10372499;28;20073;-82
2023/10/15 17:06:34;;;;;;;19.00;3.67;;;;;;;14.59;73.36;100094.44;10372282;28;20105;-79
2023/10/15 17:11:36;;;;;;;21.70;3.42;;;;;;;14.30;74.45;100063.50;10371212;28;20054;-79
2023/10/15 17:16:37;;;;;;;19.25;3.50;;;;;;;14.45;75.00;100088.22;10372074;28;20509;-81
2023/10/15 17:21:38;;;;;;;16.08;2.90;;;;;;;14.18;75.52;100051.69;10373056;28;20449;-81
2023/10/15 17:26:39;;;;;;;8.70;2.80;;;;;;;13.80;75.94;100030.78;10372648;28;20045;-71
2023/10/15 17:31:40;;;;;;;12.75;2.70;;;;;;;14.06;76.57;100091.50;10369711;28;20485;-73
2023/10/15 17:36:45;;;;;;;26.08;3.42;;;;;;;13.39;77.62;100015.50;10374841;28;20038;-85
2023/10/15 17:41:47;;;;;;;18.50;2.97;;;;;;;13.78;77.75;100092.34;10379197;28;20389;-86
2023/10/15 17:46:49;;;;;;;20.77;3.60;;;;;;;13.42;77.68;100063.16;10379325;28;20408;-84
2023/10/15 17:51:50;;;;;;;16.90;3.70;;;;;;;13.20;78.50;100038.31;10380785;28;20042;-83
2023/10/15 17:56:52;;;;;;;18.23;3.50;;;;;;;13.32;79.30;100076.81;10379486;28;20042;-81
2023/10/15 18:01:53;;;;;;;14.82;3.40;;;;;;;13.00;79.97;100040.81;10379089;28;20409;-81
2023/10/15 18:06:55;;;;;;;18.23;3.30;;;;;;;12.97;80.72;100054.53;10379911;28;20069;-79
2023/10/15 18:11:56;;;;;;;12.85;3.67;;;;;;;12.48;80.99;99983.31;10378865;28;20044;-80
2023/10/15 18:16:57;;;;;;;17.38;3.88;;;;;;;12.91;81.76;100076.59;10378636;28;20048;-80
2023/10/15 18:21:58;;;;;;;13.40;3.30;;;;;;;12.83;82.53;100066.88;10378701;28;20125;-82
2023/10/15 18:26:59;;;;;;;13.27;3.53;;;;;;;12.39;83.18;100003.09;10380231;28;20132;-79
2023/10/15 18:32:01;;;;;;;18.05;4.15;;;;;;;12.76;83.43;100072.16;10378604;28;20098;-81
2023/10/15 18:37:04;;;;;;;31.92;4.55;;;;;;;12.10;83.67;99980.84;10378469;28;20044;-80
2023/10/15 18:42:05;;;;;;;15.52;4.20;;;;;;;12.02;84.49;99989.75;10378425;28;20132;-84
2023/10/15 18:47:07;;;;;;;17.58;4.68;;;;;;;12.30;86.35;100050.31;10378307;28;20041;-84
2023/10/15 18:52:08;;;;;;;22.48;4.95;;;;;;;11.03;87.69;99876.66;10378752;28;20396;-83
2023/10/15 18:57:10;;;;;;;15.93;4.43;;;;;;;12.23;89.04;100046.72;10377979;28;20088;-84
2023/10/15 19:02:11;;;;;;;18.52;5.10;;;;;;;11.89;90.18;99997.56;10377000;28;20448;-82
2023/10/15 19:07:13;;;;;;;25.45;5.50;;;;;;;12.21;90.53;100044.28;10375688;28;20107;-83
2023/10/15 19:12:14;;;;;;;29.77;5.45;;;;;;;11.89;91.52;99989.59;10377387;28;20046;-83
2023/10/15 19:17:15;;;;;;;23.17;5.90;;;;;;;12.03;92.51;100010.03;10376966;28;20084;-81
2023/10/15 19:22:15;;;;;;;16.38;5.55;;;;;;;12.07;93.55;100024.63;10377350;28;20069;-82
2023/10/15 19:27:17;;;;;;;22.80;5.40;;;;;;;11.58;93.82;99947.19;10375976;28;20088;-83
2023/10/15 19:32:18;;;;;;;21.98;6.13;;;;;;;11.49;94.35;99940.31;10376639;28;20030;-81
2023/10/15 19:37:18;;;;;;;28.63;6.20;;;;;;;11.83;95.46;99991.13;10376124;28;20069;-81
2023/10/15 19:42:19;;;;;;;20.58;6.70;;;;;;;10.95;96.02;99867.78;10375400;28;20042;-81
2023/10/15 19:47:21;;;;;;;19.95;5.72;;;;;;;11.29;96.68;99926.72;10375283;28;20045;-81
2023/10/15 19:52:23;;;;;;;37.78;6.97;;;;;;;11.20;96.91;99908.19;10390369;28;20045;-80
2023/10/15 19:57:24;;;;;;;20.77;6.60;;;;;;;11.50;97.62;99958.75;10374631;28;20073;-81
2023/10/15 20:02:24;;;;;;;26.70;6.85;;;;;;;10.96;97.66;99861.44;10374733;28;20061;-84
2023/10/15 20:07:25;;;;;;;30.25;6.50;;;;;;;11.58;98.37;99965.81;10374779;28;20060;-83
2023/10/15 20:12:26;;;;;;;26.13;7.22;;;;;;;11.52;98.67;99948.75;10373455;28;20088;-82
2023/10/15 20:17:27;;;;;;;20.48;7.00;;;;;;;10.96;98.88;99850.00;10374375;28;20088;-82
2023/10/15 20:22:27;;;;;;;37.78;7.05;;;;;;;11.61;99.99;99938.84;10373794;28;20042;-83
2023/10/15 20:27:28;;;;;;;32.03;7.00;;;;;;;11.32;99.94;99881.97;10374544;28;20042;-85
2023/10/15 20:32:29;;;;;;;27.85;6.95;;;;;;;11.11;100.00;99831.38;10374151;28;20048;-85
2023/10/15 20:37:31;;;;;;;27.60;6.90;;;;;;;11.65;100.00;99918.81;10374782;28;20092;-88
2023/10/15 20:42:33;;;;;;;22.20;6.70;;;;;;;11.69;100.00;99916.63;10375352;28;20045;-92
2023/10/15 20:47:34;;;;;;;20.70;5.72;;;;;;;11.43;100.00;99878.88;10371980;28;20042;-86
2023/10/15 20:52:36;;;;;;;26.60;6.63;;;;;;;11.42;100.00;99863.06;10373887;28;20405;-82
2023/10/15 20:57:38;;;;;;;34.53;6.72;;;;;;;11.71;100.00;99912.75;10372653;28;20053;-83
2023/10/15 21:02:45;;;;;;;28.92;6.53;;;;;;;11.75;100.00;99910.56;10374126;28;20042;-83
2023/10/15 21:07:47;;;;;;;21.45;6.90;;;;;;;11.42;100.00;99847.13;10373074;28;20104;-84
2023/10/15 21:12:48;;;;;;;23.42;6.18;;;;;;;11.11;100.00;99799.50;10372000;28;20049;-83
2023/10/15 21:17:48;;;;;;;31.27;6.72;;;;;;;11.48;100.00;99874.81;10387959;28;20506;-82
2023/10/15 21:22:50;;;;;;;42.97;7.68;;;;;;;11.39;100.00;99898.84;10372274;28;20042;-83
2023/10/15 21:27:51;;;;;;;28.48;7.07;;;;;;;11.10;100.00;99865.13;10387859;28;20562;-82
2023/10/15 21:32:52;;;;;;;20.70;6.43;;;;;;;10.99;100.00;99870.06;10371808;28;20095;-78
2023/10/15 21:37:53;;;;;;;28.27;5.93;;;;;;;10.96;100.00;99888.00;10372549;28;20046;-85
2023/10/15 21:42:57;;;;;;;21.40;6.70;;;;;;;10.48;100.00;99842.31;10372333;28;20041;-86
2023/10/15 21:47:57;;;;;;;28.13;6.38;;;;;;;10.65;100.00;99877.53;10372522;28;20153;-85
2023/10/15 21:52:58;;;;;;;24.83;6.68;;;;;;;10.30;100.00;99860.38;10371896;28;20068;-81
2023/10/15 21:58:00;;;;;;;22.40;7.30;;;;;;;9.73;100.00;99805.88;10372046;28;20041;-80
2023/10/15 22:03:01;;;;;;;26.40;6.13;;;;;;;9.63;100.00;99837.06;10371850;28;20072;-80
2023/10/15 22:08:01;;;;;;;18.52;6.40;;;;;;;9.27;100.00;99812.91;10371848;28;20465;-80
2023/10/15 22:13:03;;;;;;;25.38;6.68;;;;;;;9.09;100.00;99802.53;10372094;28;20038;-80
2023/10/15 22:18:10;;;;;;;22.20;7.07;;;;;;;8.95;100.00;99790.84;10371479;28;20057;-81
2023/10/15 22:23:13;;;;;;;21.50;6.10;;;;;;;8.99;100.00;99809.88;10376784;28;20180;-80
2023/10/15 22:28:16;;;;;;;22.25;6.80;;;;;;;9.07;100.00;99837.16;10379644;28;20042;-80
2023/10/15 22:33:17;;;;;;;28.95;6.68;;;;;;;9.22;100.00;99863.78;10379176;28;20136;-80
2023/10/15 22:38:18;;;;;;;22.77;6.00;;;;;;;9.19;100.00;99860.66;10377713;28;20101;-80
2023/10/15 22:43:21;;;;;;;15.90;5.95;;;;;;;8.67;100.00;99793.06;10378418;28;20076;-78
2023/10/15 22:48:21;;;;;;;24.27;6.00;;;;;;;8.32;100.00;99742.16;10377750;28;20134;-78
2023/10/15 22:53:22;;;;;;;24.98;6.40;;;;;;;8.89;100.00;99841.84;10377568;28;20095;-78
2023/10/15 22:58:23;;;;;;;34.60;6.35;;;;;;;7.95;100.00;99676.56;10377302;28;20038;-82
2023/10/15 23:03:28;;;;;;;30.08;6.57;;;;;;;8.89;99.91;99831.25;10392184;28;20053;-81
2023/10/15 23:08:29;;;;;;;18.17;6.18;;;;;;;8.37;99.49;99760.16;10376867;28;20054;-80
2023/10/15 23:13:29;;;;;;;23.92;6.43;;;;;;;8.66;99.92;99821.38;10377239;28;20517;-80
2023/10/15 23:18:30;;;;;;;22.92;6.00;;;;;;;7.61;99.72;99635.28;10376642;28;20072;-80
2023/10/15 23:23:31;;;;;;;24.55;6.68;;;;;;;8.85;99.48;99830.75;10376876;28;20045;-76